sensor_id;sensor_type;location;lat;lon;timestamp;temperature;humidity
66213;SHT31;53015;50.046;8.238;2024-03-08T00:01:45;6.07;73.49
66213;SHT31;53015;50.046;8.238;2024-03-08T00:04:10;6.15;74.27
66213;SHT31;53015;50.046;8.238;2024-03-08T00:06:36;6.10;73.04
66213;SHT31;53015;50.046;8.238;2024-03-08T00:09:02;5.98;73.24
66213;SHT31;53015;50.046;8.238;2024-03-08T00:11:28;5.89;72.99
66213;SHT31;53015;50.046;8.238;2024-03-08T00:13:54;5.83;72.98
66213;SHT31;53015;50.046;8.238;2024-03-08T00:16:19;5.85;73.67
66213;SHT31;53015;50.046;8.238;2024-03-08T00:18:45;5.81;73.12
66213;SHT31;53015;50.046;8.238;2024-03-08T00:21:10;5.69;73.12
66213;SHT31;53015;50.046;8.238;2024-03-08T00:23:36;5.85;73.49
66213;SHT31;53015;50.046;8.238;2024-03-08T00:26:01;5.86;73.62
66213;SHT31;53015;50.046;8.238;2024-03-08T00:28:28;5.63;72.35
66213;SHT31;53015;50.046;8.238;2024-03-08T00:30:54;5.66;72.85
66213;SHT31;53015;50.046;8.238;2024-03-08T00:33:19;5.58;73.06
66213;SHT31;53015;50.046;8.238;2024-03-08T00:35:44;5.43;72.78
66213;SHT31;53015;50.046;8.238;2024-03-08T00:38:10;5.46;72.59
66213;SHT31;53015;50.046;8.238;2024-03-08T00:40:36;5.27;73.29
66213;SHT31;53015;50.046;8.238;2024-03-08T00:43:01;5.31;73.15
66213;SHT31;53015;50.046;8.238;2024-03-08T00:45:28;5.36;73.02
66213;SHT31;53015;50.046;8.238;2024-03-08T00:47:54;5.30;72.63
66213;SHT31;53015;50.046;8.238;2024-03-08T00:50:19;5.15;72.95
66213;SHT31;53015;50.046;8.238;2024-03-08T00:52:47;5.22;73.31
66213;SHT31;53015;50.046;8.238;2024-03-08T00:55:12;5.17;73.53
66213;SHT31;53015;50.046;8.238;2024-03-08T00:57:38;4.97;73.42
66213;SHT31;53015;50.046;8.238;2024-03-08T01:00:04;4.97;73.70
66213;SHT31;53015;50.046;8.238;2024-03-08T01:02:31;4.87;73.66
66213;SHT31;53015;50.046;8.238;2024-03-08T01:04:57;4.80;73.49
66213;SHT31;53015;50.046;8.238;2024-03-08T01:07:22;4.83;73.85
66213;SHT31;53015;50.046;8.238;2024-03-08T01:09:48;4.77;74.09
66213;SHT31;53015;50.046;8.238;2024-03-08T01:12:13;4.67;74.16
66213;SHT31;53015;50.046;8.238;2024-03-08T01:14:39;4.70;74.03
66213;SHT31;53015;50.046;8.238;2024-03-08T01:17:04;4.80;74.20
66213;SHT31;53015;50.046;8.238;2024-03-08T01:19:31;4.69;74.05
66213;SHT31;53015;50.046;8.238;2024-03-08T01:21:56;4.73;74.77
66213;SHT31;53015;50.046;8.238;2024-03-08T01:24:22;4.83;74.42
66213;SHT31;53015;50.046;8.238;2024-03-08T01:26:47;4.80;74.29
66213;SHT31;53015;50.046;8.238;2024-03-08T01:29:13;4.65;74.65
66213;SHT31;53015;50.046;8.238;2024-03-08T01:31:38;4.63;74.40
66213;SHT31;53015;50.046;8.238;2024-03-08T01:34:04;4.49;74.86
66213;SHT31;53015;50.046;8.238;2024-03-08T01:36:31;4.45;74.93
66213;SHT31;53015;50.046;8.238;2024-03-08T01:38:56;4.45;75.42
66213;SHT31;53015;50.046;8.238;2024-03-08T01:41:22;4.34;75.17
66213;SHT31;53015;50.046;8.238;2024-03-08T01:43:48;4.36;75.16
66213;SHT31;53015;50.046;8.238;2024-03-08T01:46:16;4.25;75.68
66213;SHT31;53015;50.046;8.238;2024-03-08T01:48:42;4.31;75.84
66213;SHT31;53015;50.046;8.238;2024-03-08T01:51:09;4.15;76.15
66213;SHT31;53015;50.046;8.238;2024-03-08T01:53:36;4.11;76.56
66213;SHT31;53015;50.046;8.238;2024-03-08T01:56:02;4.19;76.88
66213;SHT31;53015;50.046;8.238;2024-03-08T01:58:28;4.15;76.26
66213;SHT31;53015;50.046;8.238;2024-03-08T02:00:56;4.11;76.45
66213;SHT31;53015;50.046;8.238;2024-03-08T02:03:22;4.12;76.19
66213;SHT31;53015;50.046;8.238;2024-03-08T02:05:48;4.15;76.58
66213;SHT31;53015;50.046;8.238;2024-03-08T02:08:14;4.19;76.72
66213;SHT31;53015;50.046;8.238;2024-03-08T02:10:41;4.24;76.66
66213;SHT31;53015;50.046;8.238;2024-03-08T02:13:07;4.14;76.08
66213;SHT31;53015;50.046;8.238;2024-03-08T02:15:51;4.04;76.16
66213;SHT31;53015;50.046;8.238;2024-03-08T02:18:16;4.02;76.83
66213;SHT31;53015;50.046;8.238;2024-03-08T02:20:43;3.97;76.66
66213;SHT31;53015;50.046;8.238;2024-03-08T02:23:09;3.89;77.03
66213;SHT31;53015;50.046;8.238;2024-03-08T02:25:35;4.08;77.22
66213;SHT31;53015;50.046;8.238;2024-03-08T02:28:00;4.15;76.84
66213;SHT31;53015;50.046;8.238;2024-03-08T02:30:26;4.17;77.01
66213;SHT31;53015;50.046;8.238;2024-03-08T02:32:51;3.98;76.17
66213;SHT31;53015;50.046;8.238;2024-03-08T02:35:17;3.90;76.82
66213;SHT31;53015;50.046;8.238;2024-03-08T02:37:44;3.89;76.72
66213;SHT31;53015;50.046;8.238;2024-03-08T02:40:10;3.79;77.09
66213;SHT31;53015;50.046;8.238;2024-03-08T02:42:36;3.67;77.31
66213;SHT31;53015;50.046;8.238;2024-03-08T02:45:02;3.62;78.02
66213;SHT31;53015;50.046;8.238;2024-03-08T02:47:28;3.73;77.75
66213;SHT31;53015;50.046;8.238;2024-03-08T02:49:53;3.81;77.17
66213;SHT31;53015;50.046;8.238;2024-03-08T02:52:18;3.86;77.07
66213;SHT31;53015;50.046;8.238;2024-03-08T02:54:45;3.84;77.00
66213;SHT31;53015;50.046;8.238;2024-03-08T02:57:11;3.70;77.65
66213;SHT31;53015;50.046;8.238;2024-03-08T02:59:36;3.62;77.60
66213;SHT31;53015;50.046;8.238;2024-03-08T03:02:02;3.58;77.97
66213;SHT31;53015;50.046;8.238;2024-03-08T03:04:28;3.60;78.20
66213;SHT31;53015;50.046;8.238;2024-03-08T03:06:54;3.52;78.37
66213;SHT31;53015;50.046;8.238;2024-03-08T03:09:19;3.46;78.07
66213;SHT31;53015;50.046;8.238;2024-03-08T03:11:46;3.62;78.26
66213;SHT31;53015;50.046;8.238;2024-03-08T03:14:12;3.51;77.81
66213;SHT31;53015;50.046;8.238;2024-03-08T03:16:37;3.56;77.95
66213;SHT31;53015;50.046;8.238;2024-03-08T03:19:03;3.80;78.07
66213;SHT31;53015;50.046;8.238;2024-03-08T03:21:28;3.72;77.72
66213;SHT31;53015;50.046;8.238;2024-03-08T03:23:54;3.58;77.87
66213;SHT31;53015;50.046;8.238;2024-03-08T03:26:19;3.49;77.87
66213;SHT31;53015;50.046;8.238;2024-03-08T03:28:46;3.51;78.14
66213;SHT31;53015;50.046;8.238;2024-03-08T03:31:12;3.42;78.52
66213;SHT31;53015;50.046;8.238;2024-03-08T03:33:37;3.46;78.54
66213;SHT31;53015;50.046;8.238;2024-03-08T03:36:03;3.36;78.31
66213;SHT31;53015;50.046;8.238;2024-03-08T03:38:29;3.31;78.57
66213;SHT31;53015;50.046;8.238;2024-03-08T03:40:56;3.36;78.95
66213;SHT31;53015;50.046;8.238;2024-03-08T03:43:21;3.42;78.53
66213;SHT31;53015;50.046;8.238;2024-03-08T03:45:48;3.42;78.63
66213;SHT31;53015;50.046;8.238;2024-03-08T03:48:14;3.52;78.72
66213;SHT31;53015;50.046;8.238;2024-03-08T03:50:40;3.45;78.20
66213;SHT31;53015;50.046;8.238;2024-03-08T03:53:06;3.35;78.66
66213;SHT31;53015;50.046;8.238;2024-03-08T03:55:32;3.32;79.27
66213;SHT31;53015;50.046;8.238;2024-03-08T03:57:57;3.22;79.20
66213;SHT31;53015;50.046;8.238;2024-03-08T04:00:22;3.12;79.62
66213;SHT31;53015;50.046;8.238;2024-03-08T04:02:49;3.38;79.46
66213;SHT31;53015;50.046;8.238;2024-03-08T04:05:15;3.24;79.22
66213;SHT31;53015;50.046;8.238;2024-03-08T04:07:41;3.14;79.55
66213;SHT31;53015;50.046;8.238;2024-03-08T04:10:08;3.21;79.73
66213;SHT31;53015;50.046;8.238;2024-03-08T04:12:34;3.34;79.30
66213;SHT31;53015;50.046;8.238;2024-03-08T04:15:00;3.39;79.28
66213;SHT31;53015;50.046;8.238;2024-03-08T04:17:25;3.43;79.29
66213;SHT31;53015;50.046;8.238;2024-03-08T04:19:52;3.58;79.35
66213;SHT31;53015;50.046;8.238;2024-03-08T04:22:18;3.48;79.22
66213;SHT31;53015;50.046;8.238;2024-03-08T04:24:43;3.39;79.00
66213;SHT31;53015;50.046;8.238;2024-03-08T04:27:09;3.24;79.31
66213;SHT31;53015;50.046;8.238;2024-03-08T04:29:35;3.15;79.46
66213;SHT31;53015;50.046;8.238;2024-03-08T04:32:02;3.28;80.03
66213;SHT31;53015;50.046;8.238;2024-03-08T04:34:28;3.28;79.83
66213;SHT31;53015;50.046;8.238;2024-03-08T04:36:56;3.24;79.44
66213;SHT31;53015;50.046;8.238;2024-03-08T04:39:22;3.32;80.04
66213;SHT31;53015;50.046;8.238;2024-03-08T04:41:49;3.26;79.57
66213;SHT31;53015;50.046;8.238;2024-03-08T04:44:14;3.29;79.67
66213;SHT31;53015;50.046;8.238;2024-03-08T04:46:40;3.15;79.82
66213;SHT31;53015;50.046;8.238;2024-03-08T04:49:06;3.34;79.73
66213;SHT31;53015;50.046;8.238;2024-03-08T04:51:31;3.31;79.96
66213;SHT31;53015;50.046;8.238;2024-03-08T04:53:58;3.40;79.81
66213;SHT31;53015;50.046;8.238;2024-03-08T04:56:24;3.32;79.72
66213;SHT31;53015;50.046;8.238;2024-03-08T04:58:50;3.40;80.15
66213;SHT31;53015;50.046;8.238;2024-03-08T05:01:15;3.26;79.88
66213;SHT31;53015;50.046;8.238;2024-03-08T05:03:41;3.45;80.13
66213;SHT31;53015;50.046;8.238;2024-03-08T05:06:06;3.22;80.02
66213;SHT31;53015;50.046;8.238;2024-03-08T05:08:32;3.12;80.70
66213;SHT31;53015;50.046;8.238;2024-03-08T05:10:59;3.24;80.92
66213;SHT31;53015;50.046;8.238;2024-03-08T05:13:24;3.07;80.54
66213;SHT31;53015;50.046;8.238;2024-03-08T05:15:50;3.05;80.52
66213;SHT31;53015;50.046;8.238;2024-03-08T05:18:15;2.93;80.70
66213;SHT31;53015;50.046;8.238;2024-03-08T05:20:41;3.12;80.92
66213;SHT31;53015;50.046;8.238;2024-03-08T05:23:06;3.15;80.25
66213;SHT31;53015;50.046;8.238;2024-03-08T05:25:32;3.04;80.62
66213;SHT31;53015;50.046;8.238;2024-03-08T05:27:59;2.93;80.95
66213;SHT31;53015;50.046;8.238;2024-03-08T05:30:24;3.00;81.15
66213;SHT31;53015;50.046;8.238;2024-03-08T05:32:50;3.01;81.22
66213;SHT31;53015;50.046;8.238;2024-03-08T05:35:15;2.97;81.11
66213;SHT31;53015;50.046;8.238;2024-03-08T05:37:41;2.90;81.22
66213;SHT31;53015;50.046;8.238;2024-03-08T05:40:07;3.05;81.03
66213;SHT31;53015;50.046;8.238;2024-03-08T05:42:33;2.93;81.49
66213;SHT31;53015;50.046;8.238;2024-03-08T05:44:59;2.86;81.35
66213;SHT31;53015;50.046;8.238;2024-03-08T05:47:25;2.87;81.63
66213;SHT31;53015;50.046;8.238;2024-03-08T05:49:50;2.93;81.79
66213;SHT31;53015;50.046;8.238;2024-03-08T05:52:16;2.97;81.69
66213;SHT31;53015;50.046;8.238;2024-03-08T05:54:41;2.91;81.08
66213;SHT31;53015;50.046;8.238;2024-03-08T05:57:07;3.04;81.14
66213;SHT31;53015;50.046;8.238;2024-03-08T05:59:32;2.86;81.28
66213;SHT31;53015;50.046;8.238;2024-03-08T06:01:59;2.87;81.73
66213;SHT31;53015;50.046;8.238;2024-03-08T06:04:25;2.83;81.74
66213;SHT31;53015;50.046;8.238;2024-03-08T06:06:50;2.94;81.94
66213;SHT31;53015;50.046;8.238;2024-03-08T06:09:15;2.88;82.15
66213;SHT31;53015;50.046;8.238;2024-03-08T06:11:41;2.91;82.04
66213;SHT31;53015;50.046;8.238;2024-03-08T06:14:06;2.96;81.35
66213;SHT31;53015;50.046;8.238;2024-03-08T06:16:32;2.81;82.07
66213;SHT31;53015;50.046;8.238;2024-03-08T06:18:59;3.01;81.45
66213;SHT31;53015;50.046;8.238;2024-03-08T06:21:24;2.96;81.21
66213;SHT31;53015;50.046;8.238;2024-03-08T06:23:50;3.11;81.69
66213;SHT31;53015;50.046;8.238;2024-03-08T06:26:15;3.12;81.19
66213;SHT31;53015;50.046;8.238;2024-03-08T06:28:41;3.03;81.35
66213;SHT31;53015;50.046;8.238;2024-03-08T06:31:06;3.18;81.30
66213;SHT31;53015;50.046;8.238;2024-03-08T06:33:31;3.15;81.29
66213;SHT31;53015;50.046;8.238;2024-03-08T06:35:58;3.31;81.18
66213;SHT31;53015;50.046;8.238;2024-03-08T06:38:24;3.40;81.34
66213;SHT31;53015;50.046;8.238;2024-03-08T06:40:50;3.42;81.12
66213;SHT31;53015;50.046;8.238;2024-03-08T06:43:15;3.46;80.79
66213;SHT31;53015;50.046;8.238;2024-03-08T06:45:41;3.56;81.02
66213;SHT31;53015;50.046;8.238;2024-03-08T06:48:07;3.64;80.65
66213;SHT31;53015;50.046;8.238;2024-03-08T06:50:32;3.49;80.30
66213;SHT31;53015;50.046;8.238;2024-03-08T06:52:59;3.34;80.36
66213;SHT31;53015;50.046;8.238;2024-03-08T06:55:24;3.53;80.31
66213;SHT31;53015;50.046;8.238;2024-03-08T06:57:50;3.45;80.42
66213;SHT31;53015;50.046;8.238;2024-03-08T07:00:16;3.42;80.36
66213;SHT31;53015;50.046;8.238;2024-03-08T07:02:41;3.42;80.47
66213;SHT31;53015;50.046;8.238;2024-03-08T07:05:07;3.43;80.19
66213;SHT31;53015;50.046;8.238;2024-03-08T07:07:33;3.63;80.25
66213;SHT31;53015;50.046;8.238;2024-03-08T07:10:00;3.58;79.84
66213;SHT31;53015;50.046;8.238;2024-03-08T07:12:25;3.63;79.93
66213;SHT31;53015;50.046;8.238;2024-03-08T07:14:50;3.74;79.98
66213;SHT31;53015;50.046;8.238;2024-03-08T07:17:16;3.69;79.75
66213;SHT31;53015;50.046;8.238;2024-03-08T07:19:42;3.73;79.36
66213;SHT31;53015;50.046;8.238;2024-03-08T07:22:07;3.81;79.85
66213;SHT31;53015;50.046;8.238;2024-03-08T07:24:33;3.93;79.80
66213;SHT31;53015;50.046;8.238;2024-03-08T07:26:59;3.89;79.25
66213;SHT31;53015;50.046;8.238;2024-03-08T07:29:25;4.00;78.97
66213;SHT31;53015;50.046;8.238;2024-03-08T07:31:50;4.08;79.19
66213;SHT31;53015;50.046;8.238;2024-03-08T07:34:16;4.05;78.68
66213;SHT31;53015;50.046;8.238;2024-03-08T07:36:41;4.08;78.68
66213;SHT31;53015;50.046;8.238;2024-03-08T07:39:07;4.11;78.42
66213;SHT31;53015;50.046;8.238;2024-03-08T07:41:32;4.22;78.72
66213;SHT31;53015;50.046;8.238;2024-03-08T07:43:59;4.21;78.08
66213;SHT31;53015;50.046;8.238;2024-03-08T07:46:25;4.27;78.30
66213;SHT31;53015;50.046;8.238;2024-03-08T07:48:50;4.31;77.77
66213;SHT31;53015;50.046;8.238;2024-03-08T07:51:16;4.32;77.95
66213;SHT31;53015;50.046;8.238;2024-03-08T07:53:42;4.34;77.84
66213;SHT31;53015;50.046;8.238;2024-03-08T07:56:07;4.48;77.80
66213;SHT31;53015;50.046;8.238;2024-03-08T07:58:33;4.53;77.66
66213;SHT31;53015;50.046;8.238;2024-03-08T08:00:59;4.49;77.32
66213;SHT31;53015;50.046;8.238;2024-03-08T08:03:25;4.59;77.40
66213;SHT31;53015;50.046;8.238;2024-03-08T08:05:50;4.59;77.22
66213;SHT31;53015;50.046;8.238;2024-03-08T08:08:16;4.66;77.25
66213;SHT31;53015;50.046;8.238;2024-03-08T08:10:41;4.72;76.91
66213;SHT31;53015;50.046;8.238;2024-03-08T08:13:07;4.83;77.06
66213;SHT31;53015;50.046;8.238;2024-03-08T08:15:32;4.81;76.42
66213;SHT31;53015;50.046;8.238;2024-03-08T08:17:59;4.90;76.72
66213;SHT31;53015;50.046;8.238;2024-03-08T08:20:25;4.91;76.36
66213;SHT31;53015;50.046;8.238;2024-03-08T08:22:50;4.94;76.41
66213;SHT31;53015;50.046;8.238;2024-03-08T08:25:16;4.95;76.34
66213;SHT31;53015;50.046;8.238;2024-03-08T08:27:41;5.00;76.04
66213;SHT31;53015;50.046;8.238;2024-03-08T08:30:08;5.14;76.10
66213;SHT31;53015;50.046;8.238;2024-03-08T08:32:34;5.10;75.74
66213;SHT31;53015;50.046;8.238;2024-03-08T08:35:00;5.21;76.04
66213;SHT31;53015;50.046;8.238;2024-03-08T08:37:26;5.22;75.52
66213;SHT31;53015;50.046;8.238;2024-03-08T08:39:51;5.35;75.45
66213;SHT31;53015;50.046;8.238;2024-03-08T08:42:17;5.41;75.64
66213;SHT31;53015;50.046;8.238;2024-03-08T08:44:42;5.49;75.43
66213;SHT31;53015;50.046;8.238;2024-03-08T08:47:08;5.39;74.93
66213;SHT31;53015;50.046;8.238;2024-03-08T08:49:33;5.49;75.25
66213;SHT31;53015;50.046;8.238;2024-03-08T08:52:00;5.65;75.72
66213;SHT31;53015;50.046;8.238;2024-03-08T08:54:25;5.60;74.78
66213;SHT31;53015;50.046;8.238;2024-03-08T08:56:51;5.62;74.94
66213;SHT31;53015;50.046;8.238;2024-03-08T08:59:17;5.69;74.43
66213;SHT31;53015;50.046;8.238;2024-03-08T09:01:42;5.81;74.76
66213;SHT31;53015;50.046;8.238;2024-03-08T09:04:07;5.86;74.44
66213;SHT31;53015;50.046;8.238;2024-03-08T09:06:33;5.89;73.94
66213;SHT31;53015;50.046;8.238;2024-03-08T09:09:00;5.93;73.77
66213;SHT31;53015;50.046;8.238;2024-03-08T09:11:25;6.00;74.00
66213;SHT31;53015;50.046;8.238;2024-03-08T09:13:51;5.97;73.63
66213;SHT31;53015;50.046;8.238;2024-03-08T09:16:16;6.04;73.83
66213;SHT31;53015;50.046;8.238;2024-03-08T09:18:42;6.08;73.31
66213;SHT31;53015;50.046;8.238;2024-03-08T09:21:07;6.25;74.06
66213;SHT31;53015;50.046;8.238;2024-03-08T09:23:33;6.29;73.17
66213;SHT31;53015;50.046;8.238;2024-03-08T09:25:59;6.43;73.08
66213;SHT31;53015;50.046;8.238;2024-03-08T09:28:25;6.53;73.01
66213;SHT31;53015;50.046;8.238;2024-03-08T09:30:50;6.46;72.05
66213;SHT31;53015;50.046;8.238;2024-03-08T09:33:16;6.56;72.16
66213;SHT31;53015;50.046;8.238;2024-03-08T09:35:41;6.59;72.28
66213;SHT31;53015;50.046;8.238;2024-03-08T09:38:07;6.62;72.59
66213;SHT31;53015;50.046;8.238;2024-03-08T09:40:32;6.66;72.38
66213;SHT31;53015;50.046;8.238;2024-03-08T09:42:59;6.63;71.98
66213;SHT31;53015;50.046;8.238;2024-03-08T09:45:25;6.77;71.96
66213;SHT31;53015;50.046;8.238;2024-03-08T09:47:51;6.87;72.04
66213;SHT31;53015;50.046;8.238;2024-03-08T09:50:17;6.80;71.24
66213;SHT31;53015;50.046;8.238;2024-03-08T09:52:42;6.91;71.82
66213;SHT31;53015;50.046;8.238;2024-03-08T09:55:09;6.98;72.25
66213;SHT31;53015;50.046;8.238;2024-03-08T09:57:36;7.07;71.44
66213;SHT31;53015;50.046;8.238;2024-03-08T10:00:04;7.17;70.65
66213;SHT31;53015;50.046;8.238;2024-03-08T10:02:30;7.19;70.66
66213;SHT31;53015;50.046;8.238;2024-03-08T10:04:57;7.18;70.40
66213;SHT31;53015;50.046;8.238;2024-03-08T10:07:23;7.24;70.23
66213;SHT31;53015;50.046;8.238;2024-03-08T10:09:51;7.36;70.69
66213;SHT31;53015;50.046;8.238;2024-03-08T10:12:17;7.45;70.23
66213;SHT31;53015;50.046;8.238;2024-03-08T10:14:42;7.54;70.21
66213;SHT31;53015;50.046;8.238;2024-03-08T10:17:10;7.67;70.17
66213;SHT31;53015;50.046;8.238;2024-03-08T10:19:35;7.65;68.85
66213;SHT31;53015;50.046;8.238;2024-03-08T10:22:01;7.72;69.23
66213;SHT31;53015;50.046;8.238;2024-03-08T10:24:26;7.80;69.35
66213;SHT31;53015;50.046;8.238;2024-03-08T10:26:52;7.93;68.22
66213;SHT31;53015;50.046;8.238;2024-03-08T10:29:18;8.03;68.89
66213;SHT31;53015;50.046;8.238;2024-03-08T10:31:44;8.10;68.60
66213;SHT31;53015;50.046;8.238;2024-03-08T10:34:11;8.17;68.09
66213;SHT31;53015;50.046;8.238;2024-03-08T10:36:36;8.29;67.52
66213;SHT31;53015;50.046;8.238;2024-03-08T10:39:06;8.32;67.14
66213;SHT31;53015;50.046;8.238;2024-03-08T10:41:37;8.45;67.03
66213;SHT31;53015;50.046;8.238;2024-03-08T10:44:14;8.56;66.98
66213;SHT31;53015;50.046;8.238;2024-03-08T10:46:52;8.65;67.34
66213;SHT31;53015;50.046;8.238;2024-03-08T10:49:28;8.63;66.44
66213;SHT31;53015;50.046;8.238;2024-03-08T10:51:56;8.73;66.46
66213;SHT31;53015;50.046;8.238;2024-03-08T10:54:23;8.70;65.51
66213;SHT31;53015;50.046;8.238;2024-03-08T10:56:51;8.75;66.20
66213;SHT31;53015;50.046;8.238;2024-03-08T10:59:17;8.77;65.86
66213;SHT31;53015;50.046;8.238;2024-03-08T11:01:43;8.90;66.53
66213;SHT31;53015;50.046;8.238;2024-03-08T11:04:09;9.10;65.14
66213;SHT31;53015;50.046;8.238;2024-03-08T11:06:43;9.18;65.57
66213;SHT31;53015;50.046;8.238;2024-03-08T11:09:27;9.17;64.59
66213;SHT31;53015;50.046;8.238;2024-03-08T11:12:21;9.21;63.49
66213;SHT31;53015;50.046;8.238;2024-03-08T11:14:47;9.34;65.28
66213;SHT31;53015;50.046;8.238;2024-03-08T11:17:13;9.21;63.65
66213;SHT31;53015;50.046;8.238;2024-03-08T11:19:45;9.21;64.31
66213;SHT31;53015;50.046;8.238;2024-03-08T11:22:20;9.34;64.22
66213;SHT31;53015;50.046;8.238;2024-03-08T11:24:46;9.42;63.02
66213;SHT31;53015;50.046;8.238;2024-03-08T11:27:12;9.46;62.97
66213;SHT31;53015;50.046;8.238;2024-03-08T11:29:38;9.48;62.45
66213;SHT31;53015;50.046;8.238;2024-03-08T11:32:04;9.58;62.75
66213;SHT31;53015;50.046;8.238;2024-03-08T11:34:30;9.61;62.48
66213;SHT31;53015;50.046;8.238;2024-03-08T11:36:55;9.56;62.34
66213;SHT31;53015;50.046;8.238;2024-03-08T11:39:22;9.49;62.72
66213;SHT31;53015;50.046;8.238;2024-03-08T11:41:48;9.66;63.95
66213;SHT31;53015;50.046;8.238;2024-03-08T11:44:13;9.72;63.09
66213;SHT31;53015;50.046;8.238;2024-03-08T11:46:39;9.70;62.87
66213;SHT31;53015;50.046;8.238;2024-03-08T11:49:05;9.85;62.57
66213;SHT31;53015;50.046;8.238;2024-03-08T11:51:31;9.83;62.17
66213;SHT31;53015;50.046;8.238;2024-03-08T11:53:57;9.83;61.67
66213;SHT31;53015;50.046;8.238;2024-03-08T11:56:24;9.86;62.05
66213;SHT31;53015;50.046;8.238;2024-03-08T11:58:53;9.90;61.48
66213;SHT31;53015;50.046;8.238;2024-03-08T12:01:18;9.79;60.84
66213;SHT31;53015;50.046;8.238;2024-03-08T12:03:44;9.89;61.48
66213;SHT31;53015;50.046;8.238;2024-03-08T12:06:17;10.04;62.26
66213;SHT31;53015;50.046;8.238;2024-03-08T12:08:42;10.13;61.64
66213;SHT31;53015;50.046;8.238;2024-03-08T12:11:08;10.04;61.53
66213;SHT31;53015;50.046;8.238;2024-03-08T12:13:35;10.01;61.30
66213;SHT31;53015;50.046;8.238;2024-03-08T12:16:02;9.97;61.47
66213;SHT31;53015;50.046;8.238;2024-03-08T12:18:28;10.01;60.88
66213;SHT31;53015;50.046;8.238;2024-03-08T12:21:04;10.04;60.96
66213;SHT31;53015;50.046;8.238;2024-03-08T12:23:29;10.21;61.66
66213;SHT31;53015;50.046;8.238;2024-03-08T12:25:55;10.18;61.19
66213;SHT31;53015;50.046;8.238;2024-03-08T12:28:21;10.03;60.24
66213;SHT31;53015;50.046;8.238;2024-03-08T12:30:49;10.16;61.55
66213;SHT31;53015;50.046;8.238;2024-03-08T12:33:15;10.31;62.21
66213;SHT31;53015;50.046;8.238;2024-03-08T12:35:40;10.31;61.52
66213;SHT31;53015;50.046;8.238;2024-03-08T12:38:06;10.38;61.11
66213;SHT31;53015;50.046;8.238;2024-03-08T12:40:32;10.30;61.20
66213;SHT31;53015;50.046;8.238;2024-03-08T12:42:58;10.33;61.04
66213;SHT31;53015;50.046;8.238;2024-03-08T12:45:24;10.34;61.09
66213;SHT31;53015;50.046;8.238;2024-03-08T12:47:51;10.37;61.13
66213;SHT31;53015;50.046;8.238;2024-03-08T12:50:17;10.38;60.51
66213;SHT31;53015;50.046;8.238;2024-03-08T12:52:43;10.40;61.30
66213;SHT31;53015;50.046;8.238;2024-03-08T12:55:08;10.42;61.19
66213;SHT31;53015;50.046;8.238;2024-03-08T12:57:34;10.55;61.09
66213;SHT31;53015;50.046;8.238;2024-03-08T13:00:01;10.63;62.22
66213;SHT31;53015;50.046;8.238;2024-03-08T13:02:26;10.69;61.26
66213;SHT31;53015;50.046;8.238;2024-03-08T13:04:53;10.69;61.08
66213;SHT31;53015;50.046;8.238;2024-03-08T13:07:19;10.69;60.87
66213;SHT31;53015;50.046;8.238;2024-03-08T13:09:44;10.73;61.45
66213;SHT31;53015;50.046;8.238;2024-03-08T13:12:10;10.77;61.55
66213;SHT31;53015;50.046;8.238;2024-03-08T13:14:35;10.84;61.01
66213;SHT31;53015;50.046;8.238;2024-03-08T13:17:01;10.99;61.03
66213;SHT31;53015;50.046;8.238;2024-03-08T13:19:26;11.11;61.13
66213;SHT31;53015;50.046;8.238;2024-03-08T13:21:53;11.06;60.94
66213;SHT31;53015;50.046;8.238;2024-03-08T13:24:18;10.88;60.35
66213;SHT31;53015;50.046;8.238;2024-03-08T13:26:44;10.83;60.58
66213;SHT31;53015;50.046;8.238;2024-03-08T13:29:09;10.93;61.47
66213;SHT31;53015;50.046;8.238;2024-03-08T13:31:35;10.75;60.94
66213;SHT31;53015;50.046;8.238;2024-03-08T13:34:00;10.88;61.25
66213;SHT31;53015;50.046;8.238;2024-03-08T13:36:26;10.82;61.35
66213;SHT31;53015;50.046;8.238;2024-03-08T13:38:54;10.75;61.25
66213;SHT31;53015;50.046;8.238;2024-03-08T13:41:19;10.76;61.03
66213;SHT31;53015;50.046;8.238;2024-03-08T13:43:46;10.95;61.69
66213;SHT31;53015;50.046;8.238;2024-03-08T13:46:12;11.06;61.14
66213;SHT31;53015;50.046;8.238;2024-03-08T13:48:38;11.04;60.48
66213;SHT31;53015;50.046;8.238;2024-03-08T13:51:04;11.16;61.32
66213;SHT31;53015;50.046;8.238;2024-03-08T13:53:29;11.18;59.98
66213;SHT31;53015;50.046;8.238;2024-03-08T13:55:56;11.18;60.34
66213;SHT31;53015;50.046;8.238;2024-03-08T13:58:22;11.13;60.85
66213;SHT31;53015;50.046;8.238;2024-03-08T14:00:47;11.10;60.67
66213;SHT31;53015;50.046;8.238;2024-03-08T14:03:13;11.10;60.50
66213;SHT31;53015;50.046;8.238;2024-03-08T14:05:39;11.18;60.59
66213;SHT31;53015;50.046;8.238;2024-03-08T14:08:06;11.13;59.83
66213;SHT31;53015;50.046;8.238;2024-03-08T14:10:31;11.14;60.08
66213;SHT31;53015;50.046;8.238;2024-03-08T14:12:58;11.07;59.71
66213;SHT31;53015;50.046;8.238;2024-03-08T14:15:23;11.09;60.65
66213;SHT31;53015;50.046;8.238;2024-03-08T14:17:52;11.14;60.45
66213;SHT31;53015;50.046;8.238;2024-03-08T14:20:18;11.20;60.02
66213;SHT31;53015;50.046;8.238;2024-03-08T14:22:44;11.24;59.56
66213;SHT31;53015;50.046;8.238;2024-03-08T14:25:09;11.34;61.03
66213;SHT31;53015;50.046;8.238;2024-03-08T14:27:35;11.17;59.70
66213;SHT31;53015;50.046;8.238;2024-03-08T14:30:01;11.14;59.70
66213;SHT31;53015;50.046;8.238;2024-03-08T14:32:27;11.17;60.51
66213;SHT31;53015;50.046;8.238;2024-03-08T14:34:52;11.09;60.29
66213;SHT31;53015;50.046;8.238;2024-03-08T14:37:18;11.03;59.68
66213;SHT31;53015;50.046;8.238;2024-03-08T14:39:43;11.06;59.79
66213;SHT31;53015;50.046;8.238;2024-03-08T14:42:09;11.06;60.47
66213;SHT31;53015;50.046;8.238;2024-03-08T14:44:34;11.14;60.45
66213;SHT31;53015;50.046;8.238;2024-03-08T14:47:01;11.23;60.94
66213;SHT31;53015;50.046;8.238;2024-03-08T14:49:27;11.23;60.30
66213;SHT31;53015;50.046;8.238;2024-03-08T14:51:53;11.13;59.18
66213;SHT31;53015;50.046;8.238;2024-03-08T14:54:18;11.11;59.33
66213;SHT31;53015;50.046;8.238;2024-03-08T14:56:45;11.09;59.97
66213;SHT31;53015;50.046;8.238;2024-03-08T14:59:10;11.10;60.43
66213;SHT31;53015;50.046;8.238;2024-03-08T15:01:36;11.14;59.53
66213;SHT31;53015;50.046;8.238;2024-03-08T15:04:03;11.11;60.53
66213;SHT31;53015;50.046;8.238;2024-03-08T15:06:29;11.10;59.94
66213;SHT31;53015;50.046;8.238;2024-03-08T15:08:54;11.10;61.00
66213;SHT31;53015;50.046;8.238;2024-03-08T15:11:20;11.14;60.73
66213;SHT31;53015;50.046;8.238;2024-03-08T15:13:45;11.13;60.38
66213;SHT31;53015;50.046;8.238;2024-03-08T15:16:11;11.03;60.86
66213;SHT31;53015;50.046;8.238;2024-03-08T15:18:36;11.09;61.07
66213;SHT31;53015;50.046;8.238;2024-03-08T15:21:05;11.07;60.74
66213;SHT31;53015;50.046;8.238;2024-03-08T15:23:30;11.09;60.11
66213;SHT31;53015;50.046;8.238;2024-03-08T15:25:56;11.10;60.92
66213;SHT31;53015;50.046;8.238;2024-03-08T15:28:21;11.13;60.90
66213;SHT31;53015;50.046;8.238;2024-03-08T15:30:47;11.04;61.19
66213;SHT31;53015;50.046;8.238;2024-03-08T15:33:12;11.07;60.67
66213;SHT31;53015;50.046;8.238;2024-03-08T15:35:38;11.07;60.64